PWSweather.com
Personal Weather Stations
Station Observations
URBANDALE
Westwind Acres And Meredith Hills, Urbandale, IA 50322

Westwind Acres And Meredith HillsUrbandale, IA 50322

Lat: 41.643, Lon: -93.709

Elevation: 928

Station Type:

http://urbandaleweather.com

High Low Average
Temperature 80.8°F27.1°C 59.0°F15.0°C 70.6°F21.4°C
Dew Point 67.1°F19.5°C 58.1°F14.5°C 63.0°F17.2°C
Winds 2.0 mph 3.2 kmh Calm Calm Calm SECalm SE
Wind Gusts 8.1 mph13.0 kmh -- 1.0 mph1.6 kmh
Humidity 98% 52% 79%
Pressure 30.18 in1022.0 mb 30.11 in1019.6 mb -
Precipitation 0.01 in0.3 mm - -
Hour Temp Dew Point Humidity Winds Wind Gusts Pressure Precip Precip Rate Daily Precip Total
12:01 AM 61.3°F16.3°C 60.4°F15.8°C 97% Calm Calm -- 30.13 in1020.3 mb 0.00 in0.0 mm 0.00 in0.0 mm 0.00 in0.0 mm
12:06 AM 61.3°F16.3°C 60.4°F15.8°C 97% Calm Calm -- 30.13 in1020.3 mb 0.00 in0.0 mm 0.00 in0.0 mm 0.00 in0.0 mm
12:11 AM 61.3°F16.3°C 60.4°F15.8°C 97% Calm Calm -- 30.13 in1020.3 mb 0.00 in0.0 mm 0.00 in0.0 mm 0.00 in0.0 mm
12:16 AM 61.3°F16.3°C 60.4°F15.8°C 97% Calm Calm -- 30.13 in1020.3 mb 0.00 in0.0 mm 0.00 in0.0 mm 0.00 in0.0 mm
12:21 AM 61.3°F16.3°C 60.4°F15.8°C 97% Calm Calm -- 30.13 in1020.3 mb 0.00 in0.0 mm 0.00 in0.0 mm 0.00 in0.0 mm
12:26 AM 61.3°F16.3°C 60.4°F15.8°C 97% Calm Calm -- 30.13 in1020.3 mb 0.00 in0.0 mm 0.00 in0.0 mm 0.00 in0.0 mm
12:31 AM 61.3°F16.3°C 60.4°F15.8°C 97% Calm Calm -- 30.13 in1020.3 mb 0.00 in0.0 mm 0.00 in0.0 mm 0.00 in0.0 mm
12:36 AM 61.3°F16.3°C 60.4°F15.8°C 97% Calm Calm -- 30.13 in1020.3 mb 0.00 in0.0 mm 0.00 in0.0 mm 0.00 in0.0 mm
12:41 AM 61.3°F16.3°C 60.4°F15.8°C 97% Calm Calm -- 30.14 in1020.7 mb 0.00 in0.0 mm 0.00 in0.0 mm 0.00 in0.0 mm
12:46 AM 61.3°F16.3°C 60.4°F15.8°C 97% Calm Calm -- 30.14 in1020.7 mb 0.00 in0.0 mm 0.00 in0.0 mm 0.00 in0.0 mm
12:51 AM 61.3°F16.3°C 60.4°F15.8°C 97% Calm Calm -- 30.13 in1020.3 mb 0.00 in0.0 mm 0.00 in0.0 mm 0.00 in0.0 mm
12:56 AM 61.3°F16.3°C 60.4°F15.8°C 97% Calm Calm -- 30.13 in1020.3 mb 0.00 in0.0 mm 0.00 in0.0 mm 0.00 in0.0 mm
01:01 AM 61.2°F16.2°C 60.3°F15.7°C 97% Calm Calm -- 30.13 in1020.3 mb 0.00 in0.0 mm 0.00 in0.0 mm 0.00 in0.0 mm
01:06 AM 61.2°F16.2°C 60.3°F15.7°C 97% Calm Calm -- 30.13 in1020.3 mb 0.00 in0.0 mm 0.00 in0.0 mm 0.00 in0.0 mm
01:11 AM 61.0°F16.1°C 60.1°F15.6°C 97% Calm Calm -- 30.13 in1020.3 mb 0.00 in0.0 mm 0.00 in0.0 mm 0.00 in0.0 mm
01:16 AM 61.0°F16.1°C 60.1°F15.6°C 97% Calm Calm -- 30.12 in1020.0 mb 0.00 in0.0 mm 0.00 in0.0 mm 0.00 in0.0 mm
01:21 AM 61.0°F16.1°C 60.1°F15.6°C 97% Calm Calm -- 30.13 in1020.3 mb 0.00 in0.0 mm 0.00 in0.0 mm 0.00 in0.0 mm
01:26 AM 60.8°F16.0°C 59.9°F15.5°C 97% Calm Calm -- 30.13 in1020.3 mb 0.00 in0.0 mm 0.00 in0.0 mm 0.00 in0.0 mm
01:31 AM 60.6°F15.9°C 59.7°F15.4°C 97% Calm Calm -- 30.13 in1020.3 mb 0.00 in0.0 mm 0.00 in0.0 mm 0.00 in0.0 mm
01:36 AM 60.6°F15.9°C 59.7°F15.4°C 97% Calm Calm -- 30.14 in1020.7 mb 0.00 in0.0 mm 0.00 in0.0 mm 0.00 in0.0 mm
01:41 AM 60.6°F15.9°C 59.7°F15.4°C 97% Calm Calm -- 30.14 in1020.7 mb 0.00 in0.0 mm 0.00 in0.0 mm 0.00 in0.0 mm
01:46 AM 60.6°F15.9°C 59.7°F15.4°C 97% Calm Calm -- 30.14 in1020.7 mb 0.00 in0.0 mm 0.00 in0.0 mm 0.00 in0.0 mm
01:51 AM 60.4°F15.8°C 59.5°F15.3°C 97% Calm Calm -- 30.14 in1020.7 mb 0.00 in0.0 mm 0.00 in0.0 mm 0.00 in0.0 mm
01:56 AM 60.4°F15.8°C 59.5°F15.3°C 97% Calm Calm -- 30.14 in1020.7 mb 0.00 in0.0 mm 0.00 in0.0 mm 0.00 in0.0 mm
02:01 AM 60.4°F15.8°C 59.5°F15.3°C 97% Calm Calm -- 30.14 in1020.7 mb 0.00 in0.0 mm 0.00 in0.0 mm 0.00 in0.0 mm
02:06 AM 60.3°F15.7°C 59.4°F15.2°C 97% Calm Calm -- 30.14 in1020.7 mb 0.00 in0.0 mm 0.00 in0.0 mm 0.00 in0.0 mm
02:11 AM 60.3°F15.7°C 59.4°F15.2°C 97% Calm Calm -- 30.14 in1020.7 mb 0.00 in0.0 mm 0.00 in0.0 mm 0.00 in0.0 mm
02:16 AM 60.3°F15.7°C 59.4°F15.2°C 97% Calm Calm -- 30.13 in1020.3 mb 0.00 in0.0 mm 0.00 in0.0 mm 0.00 in0.0 mm
02:21 AM 60.3°F15.7°C 59.4°F15.2°C 97% Calm Calm -- 30.13 in1020.3 mb 0.00 in0.0 mm 0.00 in0.0 mm 0.00 in0.0 mm
02:26 AM 60.3°F15.7°C 59.4°F15.2°C 97% Calm Calm -- 30.12 in1020.0 mb 0.00 in0.0 mm 0.00 in0.0 mm 0.00 in0.0 mm
02:31 AM 60.1°F15.6°C 59.2°F15.1°C 97% Calm Calm -- 30.13 in1020.3 mb 0.00 in0.0 mm 0.00 in0.0 mm 0.00 in0.0 mm
02:36 AM 60.1°F15.6°C 59.2°F15.1°C 97% Calm Calm -- 30.13 in1020.3 mb 0.00 in0.0 mm 0.00 in0.0 mm 0.00 in0.0 mm
02:41 AM 59.9°F15.5°C 59.0°F15.0°C 97% Calm Calm -- 30.13 in1020.3 mb 0.00 in0.0 mm 0.00 in0.0 mm 0.00 in0.0 mm
02:46 AM 59.9°F15.5°C 59.0°F15.0°C 97% Calm Calm -- 30.13 in1020.3 mb 0.00 in0.0 mm 0.00 in0.0 mm 0.00 in0.0 mm
02:51 AM 59.9°F15.5°C 59.0°F15.0°C 97% Calm Calm -- 30.13 in1020.3 mb 0.00 in0.0 mm 0.00 in0.0 mm 0.00 in0.0 mm
02:56 AM 59.7°F15.4°C 58.8°F14.9°C 97% Calm Calm -- 30.13 in1020.3 mb 0.00 in0.0 mm 0.00 in0.0 mm 0.00 in0.0 mm
03:01 AM 59.7°F15.4°C 58.8°F14.9°C 97% Calm Calm -- 30.13 in1020.3 mb 0.00 in0.0 mm 0.00 in0.0 mm 0.00 in0.0 mm
03:06 AM 59.7°F15.4°C 58.8°F14.9°C 97% Calm Calm -- 30.13 in1020.3 mb 0.00 in0.0 mm 0.00 in0.0 mm 0.00 in0.0 mm
03:11 AM 59.7°F15.4°C 58.8°F14.9°C 97% Calm Calm -- 30.12 in1020.0 mb 0.00 in0.0 mm 0.00 in0.0 mm 0.00 in0.0 mm
03:16 AM 59.7°F15.4°C 58.8°F14.9°C 97% Calm Calm -- 30.12 in1020.0 mb 0.00 in0.0 mm 0.00 in0.0 mm 0.00 in0.0 mm
03:21 AM 59.7°F15.4°C 58.8°F14.9°C 97% Calm Calm -- 30.12 in1020.0 mb 0.00 in0.0 mm 0.00 in0.0 mm 0.00 in0.0 mm
03:26 AM 59.7°F15.4°C 58.8°F14.9°C 97% Calm Calm -- 30.13 in1020.3 mb 0.00 in0.0 mm 0.00 in0.0 mm 0.00 in0.0 mm
03:31 AM 59.5°F15.3°C 58.6°F14.8°C 97% Calm Calm -- 30.13 in1020.3 mb 0.00 in0.0 mm 0.00 in0.0 mm 0.00 in0.0 mm
03:36 AM 59.5°F15.3°C 58.6°F14.8°C 97% Calm Calm -- 30.13 in1020.3 mb 0.00 in0.0 mm 0.00 in0.0 mm 0.00 in0.0 mm
03:41 AM 59.7°F15.4°C 58.8°F14.9°C 97% Calm Calm -- 30.13 in1020.3 mb 0.00 in0.0 mm 0.00 in0.0 mm 0.00 in0.0 mm
03:46 AM 59.5°F15.3°C 58.6°F14.8°C 97% Calm Calm -- 30.14 in1020.7 mb 0.00 in0.0 mm 0.00 in0.0 mm 0.00 in0.0 mm
03:51 AM 59.5°F15.3°C 58.6°F14.8°C 97% Calm Calm -- 30.14 in1020.7 mb 0.00 in0.0 mm 0.00 in0.0 mm 0.00 in0.0 mm
03:56 AM 59.4°F15.2°C 58.5°F14.7°C 97% Calm Calm -- 30.14 in1020.7 mb 0.00 in0.0 mm 0.00 in0.0 mm 0.00 in0.0 mm
04:01 AM 59.4°F15.2°C 58.5°F14.7°C 97% Calm Calm -- 30.14 in1020.7 mb 0.00 in0.0 mm 0.00 in0.0 mm 0.00 in0.0 mm
04:06 AM 59.4°F15.2°C 58.5°F14.7°C 97% Calm Calm -- 30.14 in1020.7 mb 0.00 in0.0 mm 0.00 in0.0 mm 0.00 in0.0 mm
04:11 AM 59.4°F15.2°C 58.5°F14.7°C 97% Calm Calm -- 30.14 in1020.7 mb 0.00 in0.0 mm 0.00 in0.0 mm 0.00 in0.0 mm
04:16 AM 59.2°F15.1°C 58.3°F14.6°C 97% Calm Calm -- 30.14 in1020.7 mb 0.00 in0.0 mm 0.00 in0.0 mm 0.00 in0.0 mm
04:21 AM 59.2°F15.1°C 58.3°F14.6°C 97% Calm Calm -- 30.14 in1020.7 mb 0.00 in0.0 mm 0.00 in0.0 mm 0.00 in0.0 mm
04:27 AM 59.2°F15.1°C 58.3°F14.6°C 97% Calm Calm -- 30.14 in1020.7 mb 0.00 in0.0 mm 0.00 in0.0 mm 0.00 in0.0 mm
04:32 AM 59.2°F15.1°C 58.3°F14.6°C 97% Calm Calm -- 30.14 in1020.7 mb 0.00 in0.0 mm 0.00 in0.0 mm 0.00 in0.0 mm
04:37 AM 59.2°F15.1°C 58.3°F14.6°C 97% Calm Calm -- 30.14 in1020.7 mb 0.00 in0.0 mm 0.00 in0.0 mm 0.00 in0.0 mm
04:42 AM 59.0°F15.0°C 58.1°F14.5°C 97% Calm Calm -- 30.14 in1020.7 mb 0.00 in0.0 mm 0.00 in0.0 mm 0.00 in0.0 mm
04:47 AM 59.0°F15.0°C 58.1°F14.5°C 97% Calm Calm -- 30.14 in1020.7 mb 0.00 in0.0 mm 0.00 in0.0 mm 0.00 in0.0 mm
04:52 AM 59.0°F15.0°C 58.1°F14.5°C 97% Calm Calm -- 30.13 in1020.3 mb 0.00 in0.0 mm 0.00 in0.0 mm 0.00 in0.0 mm
04:57 AM 59.0°F15.0°C 58.1°F14.5°C 97% Calm Calm -- 30.13 in1020.3 mb 0.00 in0.0 mm 0.00 in0.0 mm 0.00 in0.0 mm
05:02 AM 59.2°F15.1°C 58.6°F14.8°C 98% Calm Calm -- 30.13 in1020.3 mb 0.00 in0.0 mm 0.00 in0.0 mm 0.00 in0.0 mm
05:07 AM 59.2°F15.1°C 58.3°F14.6°C 97% Calm Calm -- 30.13 in1020.3 mb 0.00 in0.0 mm 0.00 in0.0 mm 0.00 in0.0 mm
05:12 AM 59.2°F15.1°C 58.3°F14.6°C 97% Calm Calm -- 30.14 in1020.7 mb 0.00 in0.0 mm 0.00 in0.0 mm 0.00 in0.0 mm
05:17 AM 59.2°F15.1°C 58.6°F14.8°C 98% Calm Calm -- 30.14 in1020.7 mb 0.01 in0.3 mm 0.12 in3.0 mm 0.01 in0.3 mm
05:22 AM 59.2°F15.1°C 58.6°F14.8°C 98% Calm Calm -- 30.14 in1020.7 mb 0.01 in0.3 mm 0.00 in0.0 mm 0.01 in0.3 mm
05:27 AM 59.4°F15.2°C 58.8°F14.9°C 98% Calm Calm -- 30.14 in1020.7 mb 0.01 in0.3 mm 0.00 in0.0 mm 0.01 in0.3 mm
05:32 AM 59.5°F15.3°C 59.0°F15.0°C 98% Calm Calm -- 30.14 in1020.7 mb 0.01 in0.3 mm 0.00 in0.0 mm 0.01 in0.3 mm
05:37 AM 59.7°F15.4°C 59.2°F15.1°C 98% Calm Calm -- 30.15 in1021.0 mb 0.01 in0.3 mm 0.00 in0.0 mm 0.01 in0.3 mm
05:42 AM 60.1°F15.6°C 59.5°F15.3°C 98% Calm Calm -- 30.15 in1021.0 mb 0.01 in0.3 mm 0.00 in0.0 mm 0.01 in0.3 mm
05:47 AM 60.3°F15.7°C 59.7°F15.4°C 98% Calm Calm -- 30.14 in1020.7 mb 0.01 in0.3 mm 0.00 in0.0 mm 0.01 in0.3 mm
05:52 AM 60.4°F15.8°C 59.9°F15.5°C 98% Calm Calm -- 30.15 in1021.0 mb 0.01 in0.3 mm 0.00 in0.0 mm 0.01 in0.3 mm
05:57 AM 60.6°F15.9°C 60.1°F15.6°C 98% Calm Calm -- 30.14 in1020.7 mb 0.01 in0.3 mm 0.00 in0.0 mm 0.01 in0.3 mm
06:02 AM 60.6°F15.9°C 60.1°F15.6°C 98% Calm Calm -- 30.15 in1021.0 mb 0.01 in0.3 mm 0.00 in0.0 mm 0.01 in0.3 mm
06:07 AM 60.8°F16.0°C 60.3°F15.7°C 98% Calm Calm -- 30.15 in1021.0 mb 0.01 in0.3 mm 0.00 in0.0 mm 0.01 in0.3 mm
06:12 AM 61.0°F16.1°C 60.4°F15.8°C 98% Calm Calm -- 30.14 in1020.7 mb 0.00 in0.0 mm 0.00 in0.0 mm 0.01 in0.3 mm
06:17 AM 61.2°F16.2°C 60.6°F15.9°C 98% Calm Calm -- 30.14 in1020.7 mb 0.00 in0.0 mm 0.00 in0.0 mm 0.01 in0.3 mm
06:22 AM 61.3°F16.3°C 60.8°F16.0°C 98% Calm Calm -- 30.15 in1021.0 mb 0.00 in0.0 mm 0.00 in0.0 mm 0.01 in0.3 mm
06:27 AM 61.5°F16.4°C 61.0°F16.1°C 98% Calm Calm -- 30.14 in1020.7 mb 0.00 in0.0 mm 0.00 in0.0 mm 0.01 in0.3 mm
06:32 AM 61.7°F16.5°C 61.2°F16.2°C 98% Calm Calm -- 30.15 in1021.0 mb 0.00 in0.0 mm 0.00 in0.0 mm 0.01 in0.3 mm
06:37 AM 61.9°F16.6°C 61.3°F16.3°C 98% Calm Calm -- 30.15 in1021.0 mb 0.00 in0.0 mm 0.00 in0.0 mm 0.01 in0.3 mm
06:42 AM 62.1°F16.7°C 61.5°F16.4°C 98% Calm Calm -- 30.15 in1021.0 mb 0.00 in0.0 mm 0.00 in0.0 mm 0.01 in0.3 mm
06:47 AM 62.2°F16.8°C 61.7°F16.5°C 98% Calm Calm -- 30.15 in1021.0 mb 0.00 in0.0 mm 0.00 in0.0 mm 0.01 in0.3 mm
06:52 AM 62.4°F16.9°C 61.9°F16.6°C 98% Calm Calm -- 30.15 in1021.0 mb 0.00 in0.0 mm 0.00 in0.0 mm 0.01 in0.3 mm
06:57 AM 62.8°F17.1°C 62.2°F16.8°C 98% Calm Calm -- 30.15 in1021.0 mb 0.00 in0.0 mm 0.00 in0.0 mm 0.01 in0.3 mm
07:02 AM 63.0°F17.2°C 62.4°F16.9°C 98% Calm Calm -- 30.15 in1021.0 mb 0.00 in0.0 mm 0.00 in0.0 mm 0.01 in0.3 mm
07:07 AM 63.1°F17.3°C 62.6°F17.0°C 98% Calm Calm -- 30.16 in1021.3 mb 0.00 in0.0 mm 0.00 in0.0 mm 0.01 in0.3 mm
07:12 AM 63.1°F17.3°C 62.6°F17.0°C 98% Calm Calm -- 30.16 in1021.3 mb 0.00 in0.0 mm 0.00 in0.0 mm 0.01 in0.3 mm
07:17 AM 63.5°F17.5°C 63.0°F17.2°C 98% Calm Calm -- 30.16 in1021.3 mb 0.00 in0.0 mm 0.00 in0.0 mm 0.01 in0.3 mm
07:22 AM 63.7°F17.6°C 63.1°F17.3°C 98% Calm Calm -- 30.16 in1021.3 mb 0.00 in0.0 mm 0.00 in0.0 mm 0.01 in0.3 mm
07:27 AM 64.2°F17.9°C 63.7°F17.6°C 98% Calm Calm -- 30.16 in1021.3 mb 0.00 in0.0 mm 0.00 in0.0 mm 0.01 in0.3 mm
07:32 AM 64.6°F18.1°C 64.0°F17.8°C 98% Calm Calm -- 30.16 in1021.3 mb 0.00 in0.0 mm 0.00 in0.0 mm 0.01 in0.3 mm
07:37 AM 64.9°F18.3°C 64.4°F18.0°C 98% Calm Calm -- 30.16 in1021.3 mb 0.00 in0.0 mm 0.00 in0.0 mm 0.01 in0.3 mm
07:42 AM 65.3°F18.5°C 64.8°F18.2°C 98% Calm Calm -- 30.16 in1021.3 mb 0.00 in0.0 mm 0.00 in0.0 mm 0.01 in0.3 mm
07:47 AM 65.7°F18.7°C 64.8°F18.2°C 97% Calm Calm -- 30.16 in1021.3 mb 0.00 in0.0 mm 0.00 in0.0 mm 0.01 in0.3 mm
07:52 AM 66.0°F18.9°C 65.1°F18.4°C 97% Calm Calm -- 30.16 in1021.3 mb 0.00 in0.0 mm 0.00 in0.0 mm 0.01 in0.3 mm
07:57 AM 66.4°F19.1°C 65.1°F18.4°C 96% Calm Calm -- 30.16 in1021.3 mb 0.00 in0.0 mm 0.00 in0.0 mm 0.01 in0.3 mm
08:07 AM 67.6°F19.8°C 65.8°F18.8°C 94% Calm Calm -- 30.16 in1021.3 mb 0.00 in0.0 mm 0.00 in0.0 mm 0.01 in0.3 mm
08:12 AM 68.2°F20.1°C 66.0°F18.9°C 93% Calm Calm -- 30.16 in1021.3 mb 0.00 in0.0 mm 0.00 in0.0 mm 0.01 in0.3 mm
08:17 AM 68.5°F20.3°C 65.8°F18.8°C 91% Calm Calm -- 30.17 in1021.7 mb 0.00 in0.0 mm 0.00 in0.0 mm 0.01 in0.3 mm
08:22 AM 68.7°F20.4°C 65.3°F18.5°C 89% Calm Calm -- 30.16 in1021.3 mb 0.00 in0.0 mm 0.00 in0.0 mm 0.01 in0.3 mm
08:27 AM 69.1°F20.6°C 65.1°F18.4°C 87% Calm Calm -- 30.16 in1021.3 mb 0.00 in0.0 mm 0.00 in0.0 mm 0.01 in0.3 mm
08:32 AM 69.3°F20.7°C 65.3°F18.5°C 87% Calm Calm -- 30.17 in1021.7 mb 0.00 in0.0 mm 0.00 in0.0 mm 0.01 in0.3 mm
08:37 AM 69.6°F20.9°C 65.3°F18.5°C 86% Calm Calm 1.0 mph1.6 kmh 30.17 in1021.7 mb 0.00 in0.0 mm 0.00 in0.0 mm 0.01 in0.3 mm
08:42 AM 69.8°F21.0°C 64.8°F18.2°C 84% Calm Calm 1.0 mph1.6 kmh 30.17 in1021.7 mb 0.00 in0.0 mm 0.00 in0.0 mm 0.01 in0.3 mm
08:47 AM 70.0°F21.1°C 65.3°F18.5°C 85% Calm Calm -- 30.17 in1021.7 mb 0.00 in0.0 mm 0.00 in0.0 mm 0.01 in0.3 mm
08:52 AM 70.2°F21.2°C 66.4°F19.1°C 88% Calm Calm -- 30.17 in1021.7 mb 0.00 in0.0 mm 0.00 in0.0 mm 0.01 in0.3 mm
08:57 AM 70.2°F21.2°C 66.4°F19.1°C 88% Calm Calm 1.0 mph1.6 kmh 30.17 in1021.7 mb 0.00 in0.0 mm 0.00 in0.0 mm 0.01 in0.3 mm
09:02 AM 70.2°F21.2°C 66.7°F19.3°C 89% Calm Calm -- 30.17 in1021.7 mb 0.00 in0.0 mm 0.00 in0.0 mm 0.01 in0.3 mm
09:07 AM 70.3°F21.3°C 65.7°F18.7°C 85% Calm Calm 0.9 mph1.4 kmh 30.17 in1021.7 mb 0.00 in0.0 mm 0.00 in0.0 mm 0.01 in0.3 mm
09:12 AM 70.9°F21.6°C 66.2°F19.0°C 85% Calm Calm 0.9 mph1.4 kmh 30.17 in1021.7 mb 0.00 in0.0 mm 0.00 in0.0 mm 0.01 in0.3 mm
09:17 AM 71.4°F21.9°C 65.7°F18.7°C 82% Calm Calm 3.0 mph4.8 kmh 30.17 in1021.7 mb 0.00 in0.0 mm 0.00 in0.0 mm 0.01 in0.3 mm
09:22 AM 72.1°F22.3°C 66.0°F18.9°C 81% Calm Calm 2.0 mph3.2 kmh 30.17 in1021.7 mb 0.00 in0.0 mm 0.00 in0.0 mm 0.01 in0.3 mm
09:32 AM 72.9°F22.7°C 65.7°F18.7°C 78% Calm Calm 2.0 mph3.2 kmh 30.17 in1021.7 mb 0.00 in0.0 mm 0.00 in0.0 mm 0.01 in0.3 mm
09:37 AM 72.9°F22.7°C 65.7°F18.7°C 78% Calm Calm 0.9 mph1.4 kmh 30.17 in1021.7 mb 0.00 in0.0 mm 0.00 in0.0 mm 0.01 in0.3 mm
09:42 AM 73.2°F22.9°C 66.0°F18.9°C 78% Calm Calm 2.0 mph3.2 kmh 30.18 in1022.0 mb 0.00 in0.0 mm 0.00 in0.0 mm 0.01 in0.3 mm
09:47 AM 73.9°F23.3°C 67.1°F19.5°C 79% 0.9 mph E1.4 kmh E 3.0 mph4.8 kmh 30.17 in1021.7 mb 0.00 in0.0 mm 0.00 in0.0 mm 0.01 in0.3 mm
09:52 AM 74.3°F23.5°C 65.8°F18.8°C 75% 0.9 mph E1.4 kmh E 2.0 mph3.2 kmh 30.17 in1021.7 mb 0.00 in0.0 mm 0.00 in0.0 mm 0.01 in0.3 mm
09:57 AM 74.5°F23.6°C 66.4°F19.1°C 76% 0.9 mph S1.4 kmh S 3.0 mph4.8 kmh 30.17 in1021.7 mb 0.00 in0.0 mm 0.00 in0.0 mm 0.01 in0.3 mm
10:02 AM 74.7°F23.7°C 66.6°F19.2°C 76% Calm Calm 0.9 mph1.4 kmh 30.17 in1021.7 mb 0.00 in0.0 mm 0.00 in0.0 mm 0.01 in0.3 mm
10:07 AM 75.0°F23.9°C 66.6°F19.2°C 75% Calm Calm 0.9 mph1.4 kmh 30.17 in1021.7 mb 0.00 in0.0 mm 0.00 in0.0 mm 0.01 in0.3 mm
10:12 AM 75.4°F24.1°C 64.6°F18.1°C 69% 0.9 mph SE1.4 kmh SE 5.0 mph8.0 kmh 30.17 in1021.7 mb 0.00 in0.0 mm 0.00 in0.0 mm 0.01 in0.3 mm
10:17 AM 75.4°F24.1°C 65.7°F18.7°C 72% 2.0 mph S3.2 kmh S 4.9 mph7.9 kmh 30.17 in1021.7 mb 0.00 in0.0 mm 0.00 in0.0 mm 0.01 in0.3 mm
10:22 AM 75.4°F24.1°C 64.9°F18.3°C 70% 2.0 mph SE3.2 kmh SE 4.9 mph7.9 kmh 30.17 in1021.7 mb 0.00 in0.0 mm 0.00 in0.0 mm 0.01 in0.3 mm
10:27 AM 75.6°F24.2°C 65.1°F18.4°C 70% 0.9 mph ESE1.4 kmh ESE 4.9 mph7.9 kmh 30.17 in1021.7 mb 0.00 in0.0 mm 0.00 in0.0 mm 0.01 in0.3 mm
10:32 AM 75.7°F24.3°C 64.4°F18.0°C 68% 0.9 mph SE1.4 kmh SE 4.9 mph7.9 kmh 30.17 in1021.7 mb 0.00 in0.0 mm 0.00 in0.0 mm 0.01 in0.3 mm
10:37 AM 75.9°F24.4°C 65.5°F18.6°C 70% 0.9 mph SSE1.4 kmh SSE 4.0 mph6.4 kmh 30.18 in1022.0 mb 0.00 in0.0 mm 0.00 in0.0 mm 0.01 in0.3 mm
10:42 AM 76.1°F24.5°C 65.1°F18.4°C 69% 0.9 mph SSE1.4 kmh SSE 4.0 mph6.4 kmh 30.17 in1021.7 mb 0.00 in0.0 mm 0.00 in0.0 mm 0.01 in0.3 mm
10:47 AM 76.3°F24.6°C 65.8°F18.8°C 70% 0.9 mph SSE1.4 kmh SSE 2.0 mph3.2 kmh 30.17 in1021.7 mb 0.00 in0.0 mm 0.00 in0.0 mm 0.01 in0.3 mm
10:52 AM 76.5°F24.7°C 66.4°F19.1°C 71% 0.9 mph E1.4 kmh E 2.0 mph3.2 kmh 30.16 in1021.3 mb 0.00 in0.0 mm 0.00 in0.0 mm 0.01 in0.3 mm
10:57 AM 77.0°F25.0°C 66.4°F19.1°C 70% 0.9 mph SE1.4 kmh SE 3.0 mph4.8 kmh 30.16 in1021.3 mb 0.00 in0.0 mm 0.00 in0.0 mm 0.01 in0.3 mm
11:02 AM 77.2°F25.1°C 65.8°F18.8°C 68% 0.9 mph SE1.4 kmh SE 4.0 mph6.4 kmh 30.16 in1021.3 mb 0.00 in0.0 mm 0.00 in0.0 mm 0.01 in0.3 mm
11:07 AM 77.2°F25.1°C 65.8°F18.8°C 68% 0.9 mph N1.4 kmh N 2.0 mph3.2 kmh 30.16 in1021.3 mb 0.00 in0.0 mm 0.00 in0.0 mm 0.01 in0.3 mm
11:12 AM 77.4°F25.2°C 66.0°F18.9°C 68% 0.9 mph S1.4 kmh S 2.9 mph4.7 kmh 30.17 in1021.7 mb 0.00 in0.0 mm 0.00 in0.0 mm 0.01 in0.3 mm
11:17 AM 77.4°F25.2°C 66.0°F18.9°C 68% 0.9 mph SSW1.4 kmh SSW 4.0 mph6.4 kmh 30.17 in1021.7 mb 0.00 in0.0 mm 0.00 in0.0 mm 0.01 in0.3 mm
11:22 AM 77.5°F25.3°C 65.7°F18.7°C 67% 0.9 mph E1.4 kmh E 4.0 mph6.4 kmh 30.17 in1021.7 mb 0.00 in0.0 mm 0.00 in0.0 mm 0.01 in0.3 mm
11:27 AM 77.7°F25.4°C 65.8°F18.8°C 67% 0.9 mph S1.4 kmh S 4.0 mph6.4 kmh 30.17 in1021.7 mb 0.00 in0.0 mm 0.00 in0.0 mm 0.01 in0.3 mm
11:32 AM 77.7°F25.4°C 65.5°F18.6°C 66% 0.9 mph E1.4 kmh E 2.9 mph4.7 kmh 30.17 in1021.7 mb 0.00 in0.0 mm 0.00 in0.0 mm 0.01 in0.3 mm
11:37 AM 78.1°F25.6°C 65.8°F18.8°C 66% 0.9 mph SW1.4 kmh SW 2.0 mph3.2 kmh 30.16 in1021.3 mb 0.00 in0.0 mm 0.00 in0.0 mm 0.01 in0.3 mm
11:42 AM 78.4°F25.8°C 66.2°F19.0°C 66% 0.9 mph SSE1.4 kmh SSE 2.9 mph4.7 kmh 30.16 in1021.3 mb 0.00 in0.0 mm 0.00 in0.0 mm 0.01 in0.3 mm
11:47 AM 78.4°F25.8°C 66.2°F19.0°C 66% 0.9 mph S1.4 kmh S 8.1 mph13.0 kmh 30.16 in1021.3 mb 0.00 in0.0 mm 0.00 in0.0 mm 0.01 in0.3 mm
11:52 AM 78.4°F25.8°C 66.2°F19.0°C 66% 2.0 mph SSW3.2 kmh SSW 2.9 mph4.7 kmh 30.16 in1021.3 mb 0.00 in0.0 mm 0.00 in0.0 mm 0.01 in0.3 mm
11:57 AM 78.6°F25.9°C 65.8°F18.8°C 65% 0.9 mph E1.4 kmh E 2.0 mph3.2 kmh 30.16 in1021.3 mb 0.00 in0.0 mm 0.00 in0.0 mm 0.01 in0.3 mm
12:02 PM 79.0°F26.1°C 66.6°F19.2°C 66% 0.9 mph SW1.4 kmh SW 4.0 mph6.4 kmh 30.16 in1021.3 mb 0.00 in0.0 mm 0.00 in0.0 mm 0.01 in0.3 mm
12:07 PM 79.0°F26.1°C 66.6°F19.2°C 66% 0.9 mph E1.4 kmh E 2.9 mph4.7 kmh 30.16 in1021.3 mb 0.00 in0.0 mm 0.00 in0.0 mm 0.01 in0.3 mm
12:12 PM 79.0°F26.1°C 66.2°F19.0°C 65% 0.9 mph SSW1.4 kmh SSW 2.9 mph4.7 kmh 30.16 in1021.3 mb 0.00 in0.0 mm 0.00 in0.0 mm 0.01 in0.3 mm
12:17 PM 79.0°F26.1°C 66.2°F19.0°C 65% 0.9 mph SSW1.4 kmh SSW 5.0 mph8.0 kmh 30.16 in1021.3 mb 0.00 in0.0 mm 0.00 in0.0 mm 0.01 in0.3 mm
12:22 PM 79.0°F26.1°C 66.2°F19.0°C 65% 0.9 mph E1.4 kmh E 2.9 mph4.7 kmh 30.16 in1021.3 mb 0.00 in0.0 mm 0.00 in0.0 mm 0.01 in0.3 mm
12:27 PM 78.6°F25.9°C 64.9°F18.3°C 63% 0.9 mph S1.4 kmh S 5.0 mph8.0 kmh 30.16 in1021.3 mb 0.00 in0.0 mm 0.00 in0.0 mm 0.01 in0.3 mm
12:32 PM 78.8°F26.0°C 66.0°F18.9°C 65% 0.9 mph SSE1.4 kmh SSE 4.0 mph6.4 kmh 30.16 in1021.3 mb 0.00 in0.0 mm 0.00 in0.0 mm 0.01 in0.3 mm
12:37 PM 79.0°F26.1°C 65.3°F18.5°C 63% 2.0 mph SE3.2 kmh SE 5.0 mph8.0 kmh 30.16 in1021.3 mb 0.00 in0.0 mm 0.00 in0.0 mm 0.01 in0.3 mm
12:42 PM 79.0°F26.1°C 64.8°F18.2°C 62% 2.0 mph ENE3.2 kmh ENE 4.0 mph6.4 kmh 30.16 in1021.3 mb 0.00 in0.0 mm 0.00 in0.0 mm 0.01 in0.3 mm
12:47 PM 79.0°F26.1°C 64.8°F18.2°C 62% 2.0 mph E3.2 kmh E 8.1 mph13.0 kmh 30.15 in1021.0 mb 0.00 in0.0 mm 0.00 in0.0 mm 0.01 in0.3 mm
12:52 PM 79.0°F26.1°C 63.0°F17.2°C 58% 2.0 mph SE3.2 kmh SE 4.9 mph7.9 kmh 30.16 in1021.3 mb 0.00 in0.0 mm 0.00 in0.0 mm 0.01 in0.3 mm
12:57 PM 79.2°F26.2°C 64.0°F17.8°C 60% 2.0 mph SE3.2 kmh SE 4.0 mph6.4 kmh 30.16 in1021.3 mb 0.00 in0.0 mm 0.00 in0.0 mm 0.01 in0.3 mm
01:02 PM 79.3°F26.3°C 65.1°F18.4°C 62% 0.9 mph ESE1.4 kmh ESE 2.9 mph4.7 kmh 30.15 in1021.0 mb 0.00 in0.0 mm 0.00 in0.0 mm 0.01 in0.3 mm
01:07 PM 79.7°F26.5°C 64.0°F17.8°C 59% 0.9 mph E1.4 kmh E 2.9 mph4.7 kmh 30.16 in1021.3 mb 0.00 in0.0 mm 0.00 in0.0 mm 0.01 in0.3 mm
01:12 PM 79.9°F26.6°C 63.9°F17.7°C 58% 2.0 mph NE3.2 kmh NE 4.0 mph6.4 kmh 30.15 in1021.0 mb 0.00 in0.0 mm 0.00 in0.0 mm 0.01 in0.3 mm
01:17 PM 79.9°F26.6°C 64.8°F18.2°C 60% 0.9 mph SE1.4 kmh SE 4.0 mph6.4 kmh 30.15 in1021.0 mb 0.00 in0.0 mm 0.00 in0.0 mm 0.01 in0.3 mm
01:22 PM 79.7°F26.5°C 64.6°F18.1°C 60% 0.9 mph ESE1.4 kmh ESE 7.0 mph11.3 kmh 30.15 in1021.0 mb 0.00 in0.0 mm 0.00 in0.0 mm 0.01 in0.3 mm
01:27 PM 79.3°F26.3°C 64.2°F17.9°C 60% 0.9 mph NE1.4 kmh NE 4.0 mph6.4 kmh 30.15 in1021.0 mb 0.00 in0.0 mm 0.00 in0.0 mm 0.01 in0.3 mm
01:32 PM 79.3°F26.3°C 63.3°F17.4°C 58% 0.9 mph SW1.4 kmh SW 2.9 mph4.7 kmh 30.15 in1021.0 mb 0.00 in0.0 mm 0.00 in0.0 mm 0.01 in0.3 mm
01:37 PM 79.5°F26.4°C 65.3°F18.5°C 62% 0.9 mph SE1.4 kmh SE 2.0 mph3.2 kmh 30.15 in1021.0 mb 0.00 in0.0 mm 0.00 in0.0 mm 0.01 in0.3 mm
01:42 PM 79.9°F26.6°C 65.3°F18.5°C 61% 0.9 mph SE1.4 kmh SE 3.0 mph4.8 kmh 30.15 in1021.0 mb 0.00 in0.0 mm 0.00 in0.0 mm 0.01 in0.3 mm
01:47 PM 80.1°F26.7°C 64.4°F18.0°C 59% 0.9 mph ESE1.4 kmh ESE 2.9 mph4.7 kmh 30.14 in1020.7 mb 0.00 in0.0 mm 0.00 in0.0 mm 0.01 in0.3 mm
01:52 PM 80.1°F26.7°C 63.9°F17.7°C 58% 0.9 mph SE1.4 kmh SE 4.0 mph6.4 kmh 30.14 in1020.7 mb 0.00 in0.0 mm 0.00 in0.0 mm 0.01 in0.3 mm
01:57 PM 80.1°F26.7°C 64.4°F18.0°C 59% 0.9 mph E1.4 kmh E 4.0 mph6.4 kmh 30.14 in1020.7 mb 0.00 in0.0 mm 0.00 in0.0 mm 0.01 in0.3 mm
02:02 PM 80.2°F26.8°C 65.5°F18.6°C 61% 0.9 mph SE1.4 kmh SE 2.0 mph3.2 kmh 30.14 in1020.7 mb 0.00 in0.0 mm 0.00 in0.0 mm 0.01 in0.3 mm
02:07 PM 80.2°F26.8°C 65.1°F18.4°C 60% 0.9 mph ESE1.4 kmh ESE 2.0 mph3.2 kmh 30.14 in1020.7 mb 0.00 in0.0 mm 0.00 in0.0 mm 0.01 in0.3 mm
02:12 PM 80.2°F26.8°C 63.1°F17.3°C 56% 0.9 mph E1.4 kmh E 4.0 mph6.4 kmh 30.14 in1020.7 mb 0.00 in0.0 mm 0.00 in0.0 mm 0.01 in0.3 mm
02:17 PM 80.2°F26.8°C 64.0°F17.8°C 58% 0.9 mph E1.4 kmh E 0.9 mph1.4 kmh 30.13 in1020.3 mb 0.00 in0.0 mm 0.00 in0.0 mm 0.01 in0.3 mm
02:22 PM 80.1°F26.7°C 63.0°F17.2°C 56% 0.9 mph ENE1.4 kmh ENE 5.0 mph8.0 kmh 30.13 in1020.3 mb 0.00 in0.0 mm 0.00 in0.0 mm 0.01 in0.3 mm
02:27 PM 79.9°F26.6°C 62.8°F17.1°C 56% 0.9 mph E1.4 kmh E 4.9 mph7.9 kmh 30.13 in1020.3 mb 0.00 in0.0 mm 0.00 in0.0 mm 0.01 in0.3 mm
02:32 PM 79.9°F26.6°C 64.2°F17.9°C 59% 0.9 mph S1.4 kmh S 2.0 mph3.2 kmh 30.13 in1020.3 mb 0.00 in0.0 mm 0.00 in0.0 mm 0.01 in0.3 mm
02:37 PM 80.1°F26.7°C 63.5°F17.5°C 57% 0.9 mph E1.4 kmh E 2.0 mph3.2 kmh 30.13 in1020.3 mb 0.00 in0.0 mm 0.00 in0.0 mm 0.01 in0.3 mm
02:42 PM 80.1°F26.7°C 63.9°F17.7°C 58% 0.9 mph SSE1.4 kmh SSE 3.0 mph4.8 kmh 30.12 in1020.0 mb 0.00 in0.0 mm 0.00 in0.0 mm 0.01 in0.3 mm
02:47 PM 80.2°F26.8°C 64.0°F17.8°C 58% 0.9 mph SE1.4 kmh SE 2.9 mph4.7 kmh 30.13 in1020.3 mb 0.00 in0.0 mm 0.00 in0.0 mm 0.01 in0.3 mm
02:52 PM 80.2°F26.8°C 64.6°F18.1°C 59% 0.9 mph NE1.4 kmh NE 2.0 mph3.2 kmh 30.13 in1020.3 mb 0.00 in0.0 mm 0.00 in0.0 mm 0.01 in0.3 mm
02:57 PM 80.4°F26.9°C 64.8°F18.2°C 59% 0.9 mph SE1.4 kmh SE 2.9 mph4.7 kmh 30.12 in1020.0 mb 0.00 in0.0 mm 0.00 in0.0 mm 0.01 in0.3 mm
03:02 PM 80.4°F26.9°C 64.8°F18.2°C 59% 0.9 mph SE1.4 kmh SE 4.0 mph6.4 kmh 30.12 in1020.0 mb 0.00 in0.0 mm 0.00 in0.0 mm 0.01 in0.3 mm
03:07 PM 80.2°F26.8°C 64.0°F17.8°C 58% 2.0 mph SE3.2 kmh SE 4.0 mph6.4 kmh 30.12 in1020.0 mb 0.00 in0.0 mm 0.00 in0.0 mm 0.01 in0.3 mm
03:12 PM 80.2°F26.8°C 65.1°F18.4°C 60% 0.9 mph SE1.4 kmh SE 2.0 mph3.2 kmh 30.12 in1020.0 mb 0.00 in0.0 mm 0.00 in0.0 mm 0.01 in0.3 mm
03:17 PM 80.1°F26.7°C 63.9°F17.7°C 58% 0.9 mph NE1.4 kmh NE 2.9 mph4.7 kmh 30.12 in1020.0 mb 0.00 in0.0 mm 0.00 in0.0 mm 0.01 in0.3 mm
03:22 PM 80.2°F26.8°C 64.0°F17.8°C 58% 0.9 mph ENE1.4 kmh ENE 4.0 mph6.4 kmh 30.12 in1020.0 mb 0.00 in0.0 mm 0.00 in0.0 mm 0.01 in0.3 mm
03:27 PM 80.4°F26.9°C 64.8°F18.2°C 59% 0.9 mph E1.4 kmh E 2.0 mph3.2 kmh 30.12 in1020.0 mb 0.00 in0.0 mm 0.00 in0.0 mm 0.01 in0.3 mm
03:32 PM 80.8°F27.1°C 65.7°F18.7°C 60% 0.9 mph NE1.4 kmh NE 2.9 mph4.7 kmh 30.11 in1019.6 mb 0.00 in0.0 mm 0.00 in0.0 mm 0.01 in0.3 mm
03:37 PM 80.8°F27.1°C 64.0°F17.8°C 57% 0.9 mph SE1.4 kmh SE 2.9 mph4.7 kmh 30.11 in1019.6 mb 0.00 in0.0 mm 0.00 in0.0 mm 0.01 in0.3 mm
03:42 PM 80.8°F27.1°C 64.0°F17.8°C 57% 0.9 mph SE1.4 kmh SE 4.0 mph6.4 kmh 30.11 in1019.6 mb 0.00 in0.0 mm 0.00 in0.0 mm 0.01 in0.3 mm
03:47 PM 80.6°F27.0°C 64.4°F18.0°C 58% 0.9 mph NE1.4 kmh NE 4.0 mph6.4 kmh 30.12 in1020.0 mb 0.00 in0.0 mm 0.00 in0.0 mm 0.01 in0.3 mm
03:52 PM 80.4°F26.9°C 63.3°F17.4°C 56% 2.0 mph SE3.2 kmh SE 5.0 mph8.0 kmh 30.12 in1020.0 mb 0.00 in0.0 mm 0.00 in0.0 mm 0.01 in0.3 mm
03:57 PM 80.4°F26.9°C 62.8°F17.1°C 55% 2.0 mph ENE3.2 kmh ENE 4.0 mph6.4 kmh 30.11 in1019.6 mb 0.00 in0.0 mm 0.00 in0.0 mm 0.01 in0.3 mm
04:02 PM 80.4°F26.9°C 61.2°F16.2°C 52% 0.9 mph SE1.4 kmh SE 5.0 mph8.0 kmh 30.12 in1020.0 mb 0.00 in0.0 mm 0.00 in0.0 mm 0.01 in0.3 mm
04:07 PM 80.2°F26.8°C 62.6°F17.0°C 55% 0.9 mph NNE1.4 kmh NNE 4.0 mph6.4 kmh 30.12 in1020.0 mb 0.00 in0.0 mm 0.00 in0.0 mm 0.01 in0.3 mm
04:12 PM 80.1°F26.7°C 63.5°F17.5°C 57% 0.9 mph NE1.4 kmh NE 2.9 mph4.7 kmh 30.12 in1020.0 mb 0.00 in0.0 mm 0.00 in0.0 mm 0.01 in0.3 mm
04:17 PM 79.9°F26.6°C 62.8°F17.1°C 56% 0.9 mph SE1.4 kmh SE 2.9 mph4.7 kmh 30.12 in1020.0 mb 0.00 in0.0 mm 0.00 in0.0 mm 0.01 in0.3 mm
04:22 PM 80.1°F26.7°C 62.4°F16.9°C 55% 0.9 mph SE1.4 kmh SE 2.9 mph4.7 kmh 30.12 in1020.0 mb 0.00 in0.0 mm 0.00 in0.0 mm 0.01 in0.3 mm
04:27 PM 80.2°F26.8°C 63.1°F17.3°C 56% 0.9 mph SE1.4 kmh SE 2.0 mph3.2 kmh 30.12 in1020.0 mb 0.00 in0.0 mm 0.00 in0.0 mm 0.01 in0.3 mm
04:32 PM 80.4°F26.9°C 63.3°F17.4°C 56% Calm Calm 0.9 mph1.4 kmh 30.12 in1020.0 mb 0.00 in0.0 mm 0.00 in0.0 mm 0.01 in0.3 mm
04:37 PM 80.4°F26.9°C 62.2°F16.8°C 54% Calm Calm 3.0 mph4.8 kmh 30.12 in1020.0 mb 0.00 in0.0 mm 0.00 in0.0 mm 0.01 in0.3 mm
04:42 PM 80.6°F27.0°C 63.0°F17.2°C 55% 0.9 mph SE1.4 kmh SE 2.0 mph3.2 kmh 30.12 in1020.0 mb 0.00 in0.0 mm 0.00 in0.0 mm 0.01 in0.3 mm
04:47 PM 80.4°F26.9°C 61.7°F16.5°C 53% 0.9 mph SE1.4 kmh SE 4.0 mph6.4 kmh 30.11 in1019.6 mb 0.00 in0.0 mm 0.00 in0.0 mm 0.01 in0.3 mm
04:52 PM 80.2°F26.8°C 62.6°F17.0°C 55% 0.9 mph E1.4 kmh E 2.0 mph3.2 kmh 30.11 in1019.6 mb 0.00 in0.0 mm 0.00 in0.0 mm 0.01 in0.3 mm
04:57 PM 80.2°F26.8°C 62.1°F16.7°C 54% 0.9 mph E1.4 kmh E 4.0 mph6.4 kmh 30.11 in1019.6 mb 0.00 in0.0 mm 0.00 in0.0 mm 0.01 in0.3 mm
05:02 PM 80.2°F26.8°C 62.6°F17.0°C 55% 0.9 mph SE1.4 kmh SE 2.9 mph4.7 kmh 30.11 in1019.6 mb 0.00 in0.0 mm 0.00 in0.0 mm 0.01 in0.3 mm
05:07 PM 80.2°F26.8°C 62.6°F17.0°C 55% 0.9 mph E1.4 kmh E 2.9 mph4.7 kmh 30.11 in1019.6 mb 0.00 in0.0 mm 0.00 in0.0 mm 0.01 in0.3 mm
05:12 PM 80.1°F26.7°C 62.4°F16.9°C 55% 0.9 mph SE1.4 kmh SE 2.9 mph4.7 kmh 30.11 in1019.6 mb 0.00 in0.0 mm 0.00 in0.0 mm 0.01 in0.3 mm
05:17 PM 80.1°F26.7°C 63.5°F17.5°C 57% 0.9 mph SE1.4 kmh SE 2.9 mph4.7 kmh 30.11 in1019.6 mb 0.00 in0.0 mm 0.00 in0.0 mm 0.01 in0.3 mm
05:22 PM 80.1°F26.7°C 63.5°F17.5°C 57% 0.9 mph ESE1.4 kmh ESE 5.0 mph8.0 kmh 30.11 in1019.6 mb 0.00 in0.0 mm 0.00 in0.0 mm 0.01 in0.3 mm
05:27 PM 80.2°F26.8°C 64.0°F17.8°C 58% 0.9 mph E1.4 kmh E 2.9 mph4.7 kmh 30.11 in1019.6 mb 0.00 in0.0 mm 0.00 in0.0 mm 0.01 in0.3 mm
05:32 PM 80.4°F26.9°C 64.8°F18.2°C 59% 0.9 mph SE1.4 kmh SE 2.9 mph4.7 kmh 30.11 in1019.6 mb 0.00 in0.0 mm 0.00 in0.0 mm 0.01 in0.3 mm
05:37 PM 80.2°F26.8°C 64.6°F18.1°C 59% 0.9 mph SE1.4 kmh SE 2.9 mph4.7 kmh 30.11 in1019.6 mb 0.00 in0.0 mm 0.00 in0.0 mm 0.01 in0.3 mm
05:42 PM 80.1°F26.7°C 64.9°F18.3°C 60% Calm Calm 0.9 mph1.4 kmh 30.11 in1019.6 mb 0.00 in0.0 mm 0.00 in0.0 mm 0.01 in0.3 mm
05:47 PM 79.5°F26.4°C 64.9°F18.3°C 61% Calm Calm 2.0 mph3.2 kmh 30.11 in1019.6 mb 0.00 in0.0 mm 0.00 in0.0 mm 0.01 in0.3 mm
05:52 PM 79.2°F26.2°C 64.6°F18.1°C 61% Calm Calm 2.0 mph3.2 kmh 30.11 in1019.6 mb 0.00 in0.0 mm 0.00 in0.0 mm 0.01 in0.3 mm
05:57 PM 78.6°F25.9°C 64.6°F18.1°C 62% Calm Calm 0.9 mph1.4 kmh 30.11 in1019.6 mb 0.00 in0.0 mm 0.00 in0.0 mm 0.01 in0.3 mm
06:02 PM 78.3°F25.7°C 64.2°F17.9°C 62% Calm Calm 0.9 mph1.4 kmh 30.11 in1019.6 mb 0.00 in0.0 mm 0.00 in0.0 mm 0.01 in0.3 mm
06:07 PM 78.1°F25.6°C 64.4°F18.0°C 63% Calm Calm 0.9 mph1.4 kmh 30.11 in1019.6 mb 0.00 in0.0 mm 0.00 in0.0 mm 0.01 in0.3 mm
06:12 PM 77.9°F25.5°C 64.2°F17.9°C 63% Calm Calm 0.9 mph1.4 kmh 30.11 in1019.6 mb 0.00 in0.0 mm 0.00 in0.0 mm 0.01 in0.3 mm
06:17 PM 77.7°F25.4°C 64.0°F17.8°C 63% Calm Calm 0.9 mph1.4 kmh 30.12 in1020.0 mb 0.00 in0.0 mm 0.00 in0.0 mm 0.01 in0.3 mm
06:22 PM 77.5°F25.3°C 64.4°F18.0°C 64% Calm Calm 0.9 mph1.4 kmh 30.12 in1020.0 mb 0.00 in0.0 mm 0.00 in0.0 mm 0.01 in0.3 mm
06:27 PM 77.5°F25.3°C 63.9°F17.7°C 63% Calm Calm -- 30.12 in1020.0 mb 0.00 in0.0 mm 0.00 in0.0 mm 0.01 in0.3 mm
06:32 PM 77.4°F25.2°C 64.2°F17.9°C 64% Calm Calm 3.0 mph4.8 kmh 30.12 in1020.0 mb 0.00 in0.0 mm 0.00 in0.0 mm 0.01 in0.3 mm
06:37 PM 77.4°F25.2°C 64.8°F18.2°C 65% Calm Calm 0.9 mph1.4 kmh 30.12 in1020.0 mb 0.00 in0.0 mm 0.00 in0.0 mm 0.01 in0.3 mm
06:42 PM 77.2°F25.1°C 64.6°F18.1°C 65% Calm Calm 0.9 mph1.4 kmh 30.12 in1020.0 mb 0.00 in0.0 mm 0.00 in0.0 mm 0.01 in0.3 mm
06:47 PM 77.0°F25.0°C 64.8°F18.2°C 66% Calm Calm 0.9 mph1.4 kmh 30.12 in1020.0 mb 0.00 in0.0 mm 0.00 in0.0 mm 0.01 in0.3 mm
06:52 PM 76.8°F24.9°C 64.6°F18.1°C 66% Calm Calm -- 30.12 in1020.0 mb 0.00 in0.0 mm 0.00 in0.0 mm 0.01 in0.3 mm
06:57 PM 76.5°F24.7°C 64.8°F18.2°C 67% Calm Calm -- 30.12 in1020.0 mb 0.00 in0.0 mm 0.00 in0.0 mm 0.01 in0.3 mm
07:02 PM 76.3°F24.6°C 64.6°F18.1°C 67% Calm Calm 2.0 mph3.2 kmh 30.12 in1020.0 mb 0.00 in0.0 mm 0.00 in0.0 mm 0.01 in0.3 mm
07:07 PM 76.1°F24.5°C 64.8°F18.2°C 68% Calm Calm 0.9 mph1.4 kmh 30.12 in1020.0 mb 0.00 in0.0 mm 0.00 in0.0 mm 0.01 in0.3 mm
07:12 PM 75.9°F24.4°C 64.6°F18.1°C 68% Calm Calm -- 30.12 in1020.0 mb 0.00 in0.0 mm 0.00 in0.0 mm 0.01 in0.3 mm
07:18 PM 75.6°F24.2°C 64.8°F18.2°C 69% Calm Calm -- 30.12 in1020.0 mb 0.00 in0.0 mm 0.00 in0.0 mm 0.01 in0.3 mm
07:23 PM 75.4°F24.1°C 64.9°F18.3°C 70% Calm Calm -- 30.12 in1020.0 mb 0.00 in0.0 mm 0.00 in0.0 mm 0.01 in0.3 mm
07:28 PM 75.0°F23.9°C 64.6°F18.1°C 70% Calm Calm -- 30.12 in1020.0 mb 0.00 in0.0 mm 0.00 in0.0 mm 0.01 in0.3 mm
07:33 PM 74.8°F23.8°C 64.8°F18.2°C 71% Calm Calm 1.0 mph1.6 kmh 30.12 in1020.0 mb 0.00 in0.0 mm 0.00 in0.0 mm 0.01 in0.3 mm
07:38 PM 74.8°F23.8°C 64.4°F18.0°C 70% Calm Calm -- 30.12 in1020.0 mb 0.00 in0.0 mm 0.00 in0.0 mm 0.01 in0.3 mm
07:43 PM 74.8°F23.8°C 64.8°F18.2°C 71% Calm Calm -- 30.12 in1020.0 mb 0.00 in0.0 mm 0.00 in0.0 mm 0.01 in0.3 mm
07:48 PM 74.7°F23.7°C 64.6°F18.1°C 71% Calm Calm -- 30.12 in1020.0 mb 0.00 in0.0 mm 0.00 in0.0 mm 0.01 in0.3 mm
07:53 PM 74.5°F23.6°C 64.4°F18.0°C 71% Calm Calm -- 30.12 in1020.0 mb 0.00 in0.0 mm 0.00 in0.0 mm 0.01 in0.3 mm
07:58 PM 74.3°F23.5°C 64.8°F18.2°C 72% Calm Calm -- 30.12 in1020.0 mb 0.00 in0.0 mm 0.00 in0.0 mm 0.01 in0.3 mm
08:03 PM 74.1°F23.4°C 64.6°F18.1°C 72% Calm Calm -- 30.12 in1020.0 mb 0.00 in0.0 mm 0.00 in0.0 mm 0.01 in0.3 mm
08:08 PM 73.8°F23.2°C 64.6°F18.1°C 73% Calm Calm -- 30.12 in1020.0 mb 0.00 in0.0 mm 0.00 in0.0 mm 0.01 in0.3 mm
08:13 PM 73.4°F23.0°C 64.6°F18.1°C 74% Calm Calm -- 30.12 in1020.0 mb 0.00 in0.0 mm 0.00 in0.0 mm 0.01 in0.3 mm
08:18 PM 73.0°F22.8°C 64.6°F18.1°C 75% Calm Calm -- 30.12 in1020.0 mb 0.00 in0.0 mm 0.00 in0.0 mm 0.01 in0.3 mm
08:23 PM 72.7°F22.6°C 64.2°F17.9°C 75% Calm Calm -- 30.13 in1020.3 mb 0.00 in0.0 mm 0.00 in0.0 mm 0.01 in0.3 mm
08:28 PM 72.3°F22.4°C 64.4°F18.0°C 76% Calm Calm -- 30.13 in1020.3 mb 0.00 in0.0 mm 0.00 in0.0 mm 0.01 in0.3 mm
08:33 PM 72.1°F22.3°C 64.6°F18.1°C 77% Calm Calm -- 30.13 in1020.3 mb 0.00 in0.0 mm 0.00 in0.0 mm 0.01 in0.3 mm
08:38 PM 72.0°F22.2°C 64.4°F18.0°C 77% Calm Calm -- 30.13 in1020.3 mb 0.00 in0.0 mm 0.00 in0.0 mm 0.01 in0.3 mm
08:43 PM 72.0°F22.2°C 64.4°F18.0°C 77% Calm Calm -- 30.14 in1020.7 mb 0.00 in0.0 mm 0.00 in0.0 mm 0.01 in0.3 mm
08:48 PM 71.8°F22.1°C 64.2°F17.9°C 77% Calm Calm -- 30.14 in1020.7 mb 0.00 in0.0 mm 0.00 in0.0 mm 0.01 in0.3 mm
08:53 PM 71.8°F22.1°C 64.6°F18.1°C 78% Calm Calm -- 30.14 in1020.7 mb 0.00 in0.0 mm 0.00 in0.0 mm 0.01 in0.3 mm
08:58 PM 71.4°F21.9°C 64.2°F17.9°C 78% Calm Calm -- 30.14 in1020.7 mb 0.00 in0.0 mm 0.00 in0.0 mm 0.01 in0.3 mm
09:03 PM 71.4°F21.9°C 64.2°F17.9°C 78% Calm Calm -- 30.13 in1020.3 mb 0.00 in0.0 mm 0.00 in0.0 mm 0.01 in0.3 mm
09:08 PM 71.2°F21.8°C 64.4°F18.0°C 79% Calm Calm -- 30.13 in1020.3 mb 0.00 in0.0 mm 0.00 in0.0 mm 0.01 in0.3 mm
09:13 PM 71.2°F21.8°C 64.4°F18.0°C 79% Calm Calm -- 30.14 in1020.7 mb 0.00 in0.0 mm 0.00 in0.0 mm 0.01 in0.3 mm
09:18 PM 71.1°F21.7°C 64.2°F17.9°C 79% Calm Calm -- 30.13 in1020.3 mb 0.00 in0.0 mm 0.00 in0.0 mm 0.01 in0.3 mm
09:23 PM 70.9°F21.6°C 64.4°F18.0°C 80% Calm Calm -- 30.13 in1020.3 mb 0.00 in0.0 mm 0.00 in0.0 mm 0.01 in0.3 mm
09:28 PM 70.5°F21.4°C 64.0°F17.8°C 80% Calm Calm -- 30.13 in1020.3 mb 0.00 in0.0 mm 0.00 in0.0 mm 0.01 in0.3 mm
09:33 PM 70.2°F21.2°C 64.0°F17.8°C 81% Calm Calm -- 30.13 in1020.3 mb 0.00 in0.0 mm 0.00 in0.0 mm 0.01 in0.3 mm
09:38 PM 70.0°F21.1°C 64.2°F17.9°C 82% Calm Calm -- 30.13 in1020.3 mb 0.00 in0.0 mm 0.00 in0.0 mm 0.01 in0.3 mm
09:43 PM 70.0°F21.1°C 64.2°F17.9°C 82% Calm Calm -- 30.12 in1020.0 mb 0.00 in0.0 mm 0.00 in0.0 mm 0.01 in0.3 mm
09:48 PM 69.6°F20.9°C 63.9°F17.7°C 82% Calm Calm -- 30.12 in1020.0 mb 0.00 in0.0 mm 0.00 in0.0 mm 0.01 in0.3 mm
09:53 PM 69.6°F20.9°C 63.9°F17.7°C 82% Calm Calm -- 30.13 in1020.3 mb 0.00 in0.0 mm 0.00 in0.0 mm 0.01 in0.3 mm
09:58 PM 69.6°F20.9°C 63.9°F17.7°C 82% Calm Calm -- 30.13 in1020.3 mb 0.00 in0.0 mm 0.00 in0.0 mm 0.01 in0.3 mm
10:03 PM 69.8°F21.0°C 63.7°F17.6°C 81% Calm Calm -- 30.13 in1020.3 mb 0.00 in0.0 mm 0.00 in0.0 mm 0.01 in0.3 mm
10:08 PM 69.8°F21.0°C 63.7°F17.6°C 81% Calm Calm -- 30.13 in1020.3 mb 0.00 in0.0 mm 0.00 in0.0 mm 0.01 in0.3 mm
10:13 PM 69.8°F21.0°C 63.7°F17.6°C 81% Calm Calm -- 30.13 in1020.3 mb 0.00 in0.0 mm 0.00 in0.0 mm 0.01 in0.3 mm
10:18 PM 69.8°F21.0°C 64.0°F17.8°C 82% Calm Calm -- 30.13 in1020.3 mb 0.00 in0.0 mm 0.00 in0.0 mm 0.01 in0.3 mm
10:23 PM 69.8°F21.0°C 63.7°F17.6°C 81% Calm Calm -- 30.13 in1020.3 mb 0.00 in0.0 mm 0.00 in0.0 mm 0.01 in0.3 mm
10:28 PM 70.0°F21.1°C 63.9°F17.7°C 81% Calm Calm -- 30.13 in1020.3 mb 0.00 in0.0 mm 0.00 in0.0 mm 0.01 in0.3 mm
10:33 PM 69.8°F21.0°C 63.7°F17.6°C 81% Calm Calm -- 30.13 in1020.3 mb 0.00 in0.0 mm 0.00 in0.0 mm 0.01 in0.3 mm
10:38 PM 69.6°F20.9°C 63.5°F17.5°C 81% Calm Calm -- 30.13 in1020.3 mb 0.00 in0.0 mm 0.00 in0.0 mm 0.01 in0.3 mm
10:43 PM 69.4°F20.8°C 63.3°F17.4°C 81% Calm Calm -- 30.14 in1020.7 mb 0.00 in0.0 mm 0.00 in0.0 mm 0.01 in0.3 mm
10:48 PM 69.4°F20.8°C 63.3°F17.4°C 81% Calm Calm -- 30.14 in1020.7 mb 0.00 in0.0 mm 0.00 in0.0 mm 0.01 in0.3 mm
10:53 PM 69.3°F20.7°C 63.1°F17.3°C 81% Calm Calm -- 30.14 in1020.7 mb 0.00 in0.0 mm 0.00 in0.0 mm 0.01 in0.3 mm
10:58 PM 69.1°F20.6°C 63.3°F17.4°C 82% Calm Calm -- 30.14 in1020.7 mb 0.00 in0.0 mm 0.00 in0.0 mm 0.01 in0.3 mm
11:03 PM 68.7°F20.4°C 63.0°F17.2°C 82% Calm Calm -- 30.14 in1020.7 mb 0.00 in0.0 mm 0.00 in0.0 mm 0.01 in0.3 mm
11:08 PM 68.5°F20.3°C 62.8°F17.1°C 82% Calm Calm -- 30.14 in1020.7 mb 0.00 in0.0 mm 0.00 in0.0 mm 0.01 in0.3 mm
11:13 PM 68.5°F20.3°C 62.8°F17.1°C 82% Calm Calm -- 30.14 in1020.7 mb 0.00 in0.0 mm 0.00 in0.0 mm 0.01 in0.3 mm
11:18 PM 68.4°F20.2°C 63.0°F17.2°C 83% Calm Calm -- 30.14 in1020.7 mb 0.00 in0.0 mm 0.00 in0.0 mm 0.01 in0.3 mm
11:23 PM 68.4°F20.2°C 63.0°F17.2°C 83% Calm Calm -- 30.14 in1020.7 mb 0.00 in0.0 mm 0.00 in0.0 mm 0.01 in0.3 mm
11:28 PM 68.2°F20.1°C 63.1°F17.3°C 84% Calm Calm -- 30.14 in1020.7 mb 0.00 in0.0 mm 0.00 in0.0 mm 0.01 in0.3 mm
11:33 PM 68.2°F20.1°C 63.1°F17.3°C 84% Calm Calm -- 30.14 in1020.7 mb 0.00 in0.0 mm 0.00 in0.0 mm 0.01 in0.3 mm
11:38 PM 68.0°F20.0°C 63.3°F17.4°C 85% Calm Calm -- 30.14 in1020.7 mb 0.00 in0.0 mm 0.00 in0.0 mm 0.01 in0.3 mm
11:48 PM 68.0°F20.0°C 63.3°F17.4°C 85% Calm Calm -- 30.14 in1020.7 mb 0.00 in0.0 mm 0.00 in0.0 mm 0.01 in0.3 mm
11:53 PM 68.2°F20.1°C 63.1°F17.3°C 84% Calm Calm -- 30.14 in1020.7 mb 0.00 in0.0 mm 0.00 in0.0 mm 0.01 in0.3 mm
11:58 PM 68.2°F20.1°C 63.1°F17.3°C 84% Calm Calm -- 30.14 in1020.7 mb 0.00 in0.0 mm 0.00 in0.0 mm 0.01 in0.3 mm